Time;durP1;ratioP1;P1;durP2;ratioP2;P2;SDS_P1;SDS_P2;PMS_P1;PMS_P2;Temp;Humidity;BMP_temperature;BMP_pressure;BME280_temperature;BME280_humidity;BME280_pressure;Samples;Min_cycle;Max_cycle;Signal;HPM_P1;HPM_P2
2024/04/16 00:01:11;;;;;;;2.67;1.00;;;7.80;99.90;;;;;;5378807;26;20274;-69
2024/04/16 00:03:37;;;;;;;1.10;0.80;;;7.70;99.90;;;;;;5384223;26;20754;-70
2024/04/16 00:06:03;;;;;;;2.17;1.20;;;7.70;99.90;;;;;;5371820;26;20720;-71
2024/04/16 00:08:28;;;;;;;2.60;1.10;;;7.70;99.90;;;;;;5389361;26;20299;-70
2024/04/16 00:11:02;;;;;;;2.07;0.90;;;7.60;99.90;;;;;;5339161;26;20280;-70
2024/04/16 00:13:28;;;;;;;2.30;0.93;;;7.40;99.90;;;;;;5384521;26;20679;-71
2024/04/16 00:16:13;;;;;;;0.70;0.70;;;7.40;99.90;;;;;;5378454;26;20536;-70
2024/04/16 00:18:39;;;;;;;2.73;1.03;;;7.60;99.90;;;;;;5382770;26;20491;-69
2024/04/16 00:21:05;;;;;;;4.27;1.07;;;7.90;99.90;;;;;;5377338;26;20557;-68
2024/04/16 00:23:31;;;;;;;1.43;1.17;;;8.00;99.90;;;;;;5380349;26;20376;-69
2024/04/16 00:25:57;;;;;;;2.63;0.97;;;8.10;99.90;;;;;;5376509;26;21042;-68
2024/04/16 00:28:22;;;;;;;3.90;0.90;;;8.00;99.90;;;;;;5373880;26;20332;-70
2024/04/16 00:30:48;;;;;;;2.63;0.70;;;7.70;99.90;;;;;;5380128;26;20370;-72
2024/04/16 00:33:14;;;;;;;2.87;0.90;;;7.40;99.90;;;;;;5382319;26;20962;-69
2024/04/16 00:35:43;;;;;;;1.33;0.80;;;7.00;99.90;;;;;;5380697;26;20253;-69
2024/04/16 00:38:12;;;;;;;2.67;1.43;;;7.00;99.90;;;;;;5383989;26;20339;-71
2024/04/16 00:40:38;;;;;;;1.13;0.80;;;7.00;99.90;;;;;;5397277;26;20490;-69
2024/04/16 00:43:16;;;;;;;3.33;1.00;;;7.00;99.90;;;;;;5354879;26;20482;-71
2024/04/16 00:45:50;;;;;;;1.27;0.60;;;7.10;99.90;;;;;;5366858;26;20640;-70
2024/04/16 00:48:18;;;;;;;6.10;1.30;;;7.10;99.90;;;;;;5382067;26;20551;-71
2024/04/16 00:50:46;;;;;;;4.23;0.90;;;7.10;99.90;;;;;;5381535;26;20516;-70
2024/04/16 00:53:13;;;;;;;1.90;0.87;;;7.30;99.90;;;;;;5358761;26;20499;-70
2024/04/16 00:55:39;;;;;;;0.60;0.60;;;7.20;99.90;;;;;;5358766;26;20490;-71
2024/04/16 00:58:06;;;;;;;0.97;0.63;;;7.20;99.90;;;;;;5381895;26;20558;-67
2024/04/16 01:00:32;;;;;;;1.13;0.60;;;7.20;99.90;;;;;;5351901;26;20541;-70
2024/04/16 01:02:57;;;;;;;0.77;0.60;;;7.30;99.90;;;;;;5341523;26;20670;-72
2024/04/16 01:05:23;;;;;;;3.27;0.83;;;7.50;99.90;;;;;;5362008;26;20621;-67
2024/04/16 01:07:49;;;;;;;1.33;0.63;;;7.60;99.90;;;;;;5356257;26;20262;-69
2024/04/16 01:10:14;;;;;;;0.80;0.63;;;7.50;99.90;;;;;;5383895;26;20266;-69
2024/04/16 01:12:44;;;;;;;1.60;0.70;;;7.30;99.90;;;;;;5379636;26;20307;-70
2024/04/16 01:15:10;;;;;;;0.50;0.50;;;7.20;99.90;;;;;;5341866;26;20282;-70
2024/04/16 01:17:37;;;;;;;0.57;0.57;;;7.40;99.90;;;;;;5343543;26;20478;-69
2024/04/16 01:20:03;;;;;;;1.33;0.40;;;7.30;99.90;;;;;;5325342;26;20484;-68
2024/04/16 01:22:29;;;;;;;0.63;0.33;;;7.30;99.90;;;;;;5355730;26;20484;-69
2024/04/16 01:24:54;;;;;;;0.50;0.50;;;7.10;99.90;;;;;;5336437;26;20501;-69
2024/04/16 01:27:21;;;;;;;0.63;0.30;;;6.80;99.90;;;;;;5345978;26;20658;-70
2024/04/16 01:29:47;;;;;;;0.40;0.30;;;6.80;99.90;;;;;;5345045;26;20258;-69
2024/04/16 01:32:13;;;;;;;0.50;0.50;;;6.80;99.90;;;;;;5341795;26;21091;-69
2024/04/16 01:34:38;;;;;;;0.40;0.40;;;6.90;99.90;;;;;;5346420;26;20490;-70
2024/04/16 01:37:04;;;;;;;1.03;0.47;;;7.00;99.90;;;;;;5348072;26;20267;-69
2024/04/16 01:39:30;;;;;;;0.40;0.30;;;6.90;99.90;;;;;;5341379;26;20279;-70
2024/04/16 01:41:55;;;;;;;0.37;0.30;;;6.70;99.90;;;;;;5344618;26;20316;-69
2024/04/16 01:44:21;;;;;;;0.50;0.30;;;6.60;99.90;;;;;;5354801;26;20283;-70
2024/04/16 01:46:47;;;;;;;1.33;0.50;;;6.70;99.90;;;;;;5323565;26;20266;-70
2024/04/16 01:49:12;;;;;;;0.40;0.33;;;6.50;99.90;;;;;;5349801;26;20306;-72
2024/04/16 01:51:38;;;;;;;2.10;0.50;;;6.30;99.90;;;;;;5344581;26;20259;-68
2024/04/16 01:54:03;;;;;;;0.40;0.33;;;6.20;99.90;;;;;;5344101;26;20289;-69
2024/04/16 01:56:29;;;;;;;0.60;0.60;;;6.10;99.90;;;;;;5330940;26;20374;-69
2024/04/16 01:58:55;;;;;;;0.70;0.50;;;5.90;99.90;;;;;;5339139;26;20262;-70
2024/04/16 02:01:20;;;;;;;1.40;0.57;;;5.80;99.90;;;;;;5356470;26;20284;-69
2024/04/16 02:03:46;;;;;;;0.70;0.40;;;5.80;99.90;;;;;;5340166;26;20649;-69
2024/04/16 02:06:12;;;;;;;0.40;0.40;;;5.80;99.90;;;;;;5353639;26;20380;-69
2024/04/16 02:08:37;;;;;;;0.63;0.47;;;5.90;99.90;;;;;;5342745;26;20302;-68
2024/04/16 02:11:03;;;;;;;0.43;0.40;;;5.70;99.90;;;;;;5343102;26;20262;-70
2024/04/16 02:13:29;;;;;;;1.13;0.40;;;5.50;99.90;;;;;;5351290;26;20262;-70
2024/04/16 02:15:55;;;;;;;2.47;0.57;;;5.70;99.90;;;;;;5350439;26;20262;-69
2024/04/16 02:18:20;;;;;;;2.73;0.40;;;5.50;99.90;;;;;;5343469;26;20275;-69
2024/04/16 02:20:46;;;;;;;2.10;0.43;;;5.60;99.90;;;;;;5342164;26;20273;-69
2024/04/16 02:23:11;;;;;;;0.57;0.40;;;5.50;99.90;;;;;;5339347;26;20314;-70
2024/04/16 02:25:37;;;;;;;0.40;0.40;;;5.50;99.90;;;;;;5352220;26;20308;-70
2024/04/16 02:28:03;;;;;;;0.40;0.40;;;5.50;99.90;;;;;;5327157;26;20256;-69
2024/04/16 02:30:30;;;;;;;5.30;0.77;;;5.40;99.90;;;;;;5346865;26;20275;-69
2024/04/16 02:32:55;;;;;;;0.60;0.60;;;5.40;99.90;;;;;;5326307;26;20470;-68
2024/04/16 02:35:21;;;;;;;0.50;0.33;;;5.30;99.90;;;;;;5327619;26;20536;-68
2024/04/16 02:37:48;;;;;;;4.77;0.87;;;5.20;99.90;;;;;;5345805;26;20668;-69
2024/04/16 02:40:15;;;;;;;1.53;0.73;;;5.20;99.90;;;;;;5331124;26;20823;-70
2024/04/16 02:42:40;;;;;;;0.40;0.30;;;5.20;99.90;;;;;;5352292;26;20490;-71
2024/04/16 02:45:06;;;;;;;0.63;0.60;;;5.20;99.90;;;;;;5356233;26;20488;-69
2024/04/16 02:47:32;;;;;;;1.00;0.60;;;5.10;99.90;;;;;;5350619;26;20271;-70
2024/04/16 02:49:58;;;;;;;0.90;0.60;;;5.20;99.90;;;;;;5352305;26;20262;-69
2024/04/16 02:52:23;;;;;;;0.53;0.40;;;5.30;99.90;;;;;;5351180;26;20333;-68
2024/04/16 02:54:49;;;;;;;2.57;0.53;;;5.30;99.90;;;;;;5345640;26;20262;-69
2024/04/16 02:57:15;;;;;;;1.33;0.40;;;5.20;99.90;;;;;;5321220;26;20251;-70
2024/04/16 02:59:41;;;;;;;0.97;0.60;;;5.30;99.90;;;;;;5347956;26;20787;-69
2024/04/16 03:02:06;;;;;;;0.53;0.53;;;5.20;99.90;;;;;;5342270;26;20265;-69
2024/04/16 03:04:32;;;;;;;2.30;0.60;;;5.00;99.90;;;;;;5351281;26;20495;-70
2024/04/16 03:06:58;;;;;;;2.30;0.50;;;4.90;99.90;;;;;;5372644;26;20736;-68
2024/04/16 03:09:23;;;;;;;1.87;0.70;;;4.80;99.90;;;;;;5346290;26;20306;-69
2024/04/16 03:11:49;;;;;;;0.40;0.30;;;4.90;99.90;;;;;;5345427;26;20301;-70
2024/04/16 03:14:15;;;;;;;0.63;0.60;;;4.90;99.90;;;;;;5359259;26;20258;-69
2024/04/16 03:16:41;;;;;;;1.07;0.93;;;4.90;99.90;;;;;;5348570;26;20264;-70
2024/04/16 03:19:06;;;;;;;0.50;0.40;;;4.80;99.90;;;;;;5344155;26;20549;-69
2024/04/16 03:21:32;;;;;;;1.93;0.50;;;4.80;99.90;;;;;;5347897;26;20973;-68
2024/04/16 03:23:58;;;;;;;1.40;0.60;;;4.70;99.90;;;;;;5338504;26;20285;-69
2024/04/16 03:26:24;;;;;;;1.53;0.50;;;4.70;99.90;;;;;;5347588;26;20305;-69
2024/04/16 03:28:50;;;;;;;0.47;0.33;;;4.70;99.90;;;;;;5334427;26;20267;-70
2024/04/16 03:31:15;;;;;;;0.50;0.40;;;4.60;99.90;;;;;;5344709;26;20496;-69
2024/04/16 03:33:41;;;;;;;0.40;0.40;;;4.60;99.90;;;;;;5373697;26;20263;-70
2024/04/16 03:36:07;;;;;;;0.70;0.70;;;4.70;99.90;;;;;;5314932;26;20278;-68
2024/04/16 03:38:32;;;;;;;0.70;0.50;;;4.60;99.90;;;;;;5342129;26;20271;-69
2024/04/16 03:41:02;;;;;;;0.87;0.37;;;4.70;99.90;;;;;;5344759;26;20318;-69
2024/04/16 03:43:29;;;;;;;0.50;0.50;;;4.60;99.90;;;;;;5343246;26;20300;-70
2024/04/16 03:45:55;;;;;;;0.80;0.67;;;4.60;99.90;;;;;;5351939;26;21033;-69
2024/04/16 03:48:22;;;;;;;1.50;0.50;;;4.60;99.90;;;;;;5340565;26;20496;-70
2024/04/16 03:50:47;;;;;;;0.60;0.60;;;4.50;99.90;;;;;;5346030;26;20922;-69
2024/04/16 03:53:13;;;;;;;4.30;0.77;;;4.70;99.90;;;;;;5340500;26;20574;-70
2024/04/16 03:55:39;;;;;;;0.50;0.50;;;4.70;99.90;;;;;;5320033;26;20267;-68
2024/04/16 03:58:05;;;;;;;0.70;0.63;;;4.60;99.90;;;;;;5307516;26;20263;-69
2024/04/16 04:03:16;;;;;;;1.47;1.00;;;4.60;99.90;;;;;;5346230;26;20277;-69
2024/04/16 04:05:46;;;;;;;2.07;1.03;;;4.50;99.90;;;;;;5321897;26;20481;-69
2024/04/16 04:08:12;;;;;;;2.23;0.83;;;4.50;99.90;;;;;;5372759;26;20552;-69
2024/04/16 04:10:38;;;;;;;0.60;0.60;;;4.60;99.90;;;;;;5363880;26;20500;-69
2024/04/16 04:13:04;;;;;;;1.83;1.00;;;4.50;99.90;;;;;;5372454;26;22032;-69
2024/04/16 04:15:31;;;;;;;0.80;0.60;;;4.60;99.90;;;;;;5386553;26;20491;-69
2024/04/16 04:17:56;;;;;;;0.60;0.60;;;4.70;99.90;;;;;;5378660;25;20266;-69
2024/04/16 04:20:22;;;;;;;1.53;0.93;;;4.70;99.90;;;;;;5385404;26;20556;-69
2024/04/16 04:22:48;;;;;;;0.73;0.67;;;4.70;99.90;;;;;;5388781;26;20746;-69
2024/04/16 04:25:14;;;;;;;0.67;0.67;;;4.70;99.90;;;;;;5378883;26;20306;-71
2024/04/16 04:27:43;;;;;;;0.50;0.50;;;4.70;99.90;;;;;;5396587;26;20332;-71
2024/04/16 04:30:09;;;;;;;0.93;0.70;;;4.70;99.90;;;;;;5378271;26;20545;-70
2024/04/16 04:32:36;;;;;;;1.37;0.50;;;4.70;99.90;;;;;;5382772;26;20486;-70
2024/04/16 04:35:02;;;;;;;1.27;0.70;;;4.70;99.90;;;;;;5378500;26;20495;-71
2024/04/16 04:37:28;;;;;;;1.63;0.57;;;4.70;99.90;;;;;;5384827;26;20580;-69
2024/04/16 04:39:54;;;;;;;0.97;0.87;;;4.70;99.90;;;;;;5388166;26;21003;-69
2024/04/16 04:42:20;;;;;;;1.20;1.10;;;4.80;99.90;;;;;;5356485;26;20495;-69
2024/04/16 04:44:46;;;;;;;0.83;0.77;;;4.80;99.90;;;;;;5393159;26;20258;-68
2024/04/16 04:47:12;;;;;;;3.00;0.83;;;4.80;99.90;;;;;;5387080;26;20373;-70
2024/04/16 04:49:39;;;;;;;4.80;1.33;;;4.80;99.90;;;;;;5386771;26;20494;-68
2024/04/16 04:52:04;;;;;;;1.77;0.73;;;4.90;99.90;;;;;;5387428;26;20256;-69
2024/04/16 04:54:30;;;;;;;1.00;0.73;;;4.90;99.90;;;;;;5385203;26;20527;-70
2024/04/16 04:56:56;;;;;;;1.43;1.00;;;5.00;99.90;;;;;;5363030;26;20312;-69
2024/04/16 04:59:22;;;;;;;2.93;1.13;;;5.00;99.90;;;;;;5383597;26;20325;-69
2024/04/16 05:01:47;;;;;;;7.40;1.30;;;5.10;99.90;;;;;;5384081;26;20366;-70
2024/04/16 05:04:13;;;;;;;1.23;0.73;;;5.10;99.90;;;;;;5379053;26;20261;-70
2024/04/16 05:06:39;;;;;;;2.23;1.10;;;5.10;99.90;;;;;;5395142;26;20362;-70
2024/04/16 05:09:05;;;;;;;2.60;1.10;;;5.30;99.90;;;;;;5391471;26;20499;-71
2024/04/16 05:11:31;;;;;;;3.37;1.80;;;5.40;99.90;;;;;;5377019;26;20551;-69
2024/04/16 05:13:57;;;;;;;4.87;0.80;;;5.40;99.90;;;;;;5379285;26;20977;-71
2024/04/16 05:16:23;;;;;;;1.53;1.00;;;5.30;99.90;;;;;;5378981;26;20496;-70
2024/04/16 05:18:49;;;;;;;0.97;0.80;;;5.40;99.90;;;;;;5374676;26;20383;-71
2024/04/16 05:21:15;;;;;;;4.00;1.77;;;5.30;99.90;;;;;;5378967;26;20555;-69
2024/04/16 05:23:40;;;;;;;2.03;1.13;;;5.40;99.90;;;;;;5383816;26;20265;-70
2024/04/16 05:26:07;;;;;;;3.37;1.23;;;5.50;99.90;;;;;;5380850;26;20284;-72
2024/04/16 05:28:33;;;;;;;1.50;1.40;;;5.50;99.90;;;;;;5388667;26;20266;-70
2024/04/16 05:30:59;;;;;;;1.17;1.03;;;5.50;99.90;;;;;;5381042;26;20566;-70
2024/04/16 05:33:27;;;;;;;4.50;1.37;;;5.50;99.90;;;;;;5384976;26;20500;-70
2024/04/16 05:35:53;;;;;;;5.60;1.50;;;5.50;99.90;;;;;;5389395;26;20315;-70
2024/04/16 05:38:19;;;;;;;2.40;0.73;;;5.60;99.90;;;;;;5345437;26;20489;-70
2024/04/16 05:40:45;;;;;;;4.40;1.07;;;5.60;99.90;;;;;;5329859;26;20255;-70
2024/04/16 05:43:11;;;;;;;0.97;0.90;;;5.60;99.90;;;;;;5366824;26;20847;-70
2024/04/16 05:45:36;;;;;;;2.33;1.13;;;5.60;99.90;;;;;;5377613;26;20346;-70
2024/04/16 05:48:02;;;;;;;1.50;0.90;;;5.60;99.90;;;;;;5384352;26;20273;-70
2024/04/16 05:50:28;;;;;;;5.63;1.77;;;5.70;99.90;;;;;;5388456;26;20317;-71
2024/04/16 05:52:54;;;;;;;1.70;1.60;;;5.70;99.90;;;;;;5382923;26;20340;-71
2024/04/16 05:55:20;;;;;;;1.20;1.10;;;5.70;99.90;;;;;;5394684;26;20270;-71
2024/04/16 05:57:45;;;;;;;1.67;1.00;;;5.70;99.90;;;;;;5376929;26;20274;-70
2024/04/16 06:00:12;;;;;;;1.30;1.07;;;5.80;99.90;;;;;;5355615;26;20592;-70
2024/04/16 06:02:37;;;;;;;4.13;1.30;;;5.80;99.90;;;;;;5354008;26;20267;-70
2024/04/16 06:05:04;;;;;;;0.97;0.97;;;5.80;99.90;;;;;;5341245;26;20535;-70
2024/04/16 06:07:30;;;;;;;1.90;1.00;;;5.80;99.90;;;;;;5344927;26;20271;-72
2024/04/16 06:09:55;;;;;;;3.43;1.00;;;5.90;99.90;;;;;;5343554;26;20579;-70
2024/04/16 06:12:21;;;;;;;0.73;0.73;;;5.90;99.90;;;;;;5360679;26;20735;-70
2024/04/16 06:14:47;;;;;;;4.10;1.30;;;6.00;99.90;;;;;;5346473;26;20274;-71
2024/04/16 06:17:12;;;;;;;4.83;2.03;;;6.00;99.90;;;;;;5325362;26;20269;-72
2024/04/16 06:19:38;;;;;;;2.43;1.37;;;6.10;99.90;;;;;;5348761;26;20263;-68
2024/04/16 06:22:04;;;;;;;1.20;1.10;;;6.10;99.90;;;;;;5338079;26;20815;-70
2024/04/16 06:24:30;;;;;;;4.80;1.50;;;6.10;99.90;;;;;;5345670;26;20505;-70
2024/04/16 06:26:55;;;;;;;4.63;1.00;;;6.20;99.90;;;;;;5347929;26;20274;-71
2024/04/16 06:29:21;;;;;;;3.20;1.00;;;6.30;99.90;;;;;;5346226;26;20320;-70
2024/04/16 06:31:47;;;;;;;4.83;1.70;;;6.30;99.90;;;;;;5314109;26;20263;-71
2024/04/16 06:34:12;;;;;;;2.47;1.33;;;6.30;99.90;;;;;;5337198;26;20281;-69
2024/04/16 06:36:39;;;;;;;4.10;2.07;;;6.30;99.90;;;;;;5344982;26;20745;-70
2024/04/16 06:39:05;;;;;;;2.00;1.40;;;6.30;99.90;;;;;;5341852;26;20291;-72
2024/04/16 06:41:31;;;;;;;2.13;1.77;;;6.40;99.90;;;;;;5348900;26;20685;-72
2024/04/16 06:43:56;;;;;;;3.30;2.20;;;6.40;99.90;;;;;;5350331;26;20277;-71
2024/04/16 06:46:22;;;;;;;5.07;1.60;;;6.50;99.90;;;;;;5346193;26;20266;-71
2024/04/16 06:48:50;;;;;;;3.30;2.13;;;6.50;99.90;;;;;;5345961;26;20247;-71
2024/04/16 06:51:16;;;;;;;3.60;2.00;;;6.60;99.90;;;;;;5326493;26;20388;-71
2024/04/16 06:53:42;;;;;;;5.23;2.20;;;6.70;99.90;;;;;;5344500;26;20512;-71
2024/04/16 06:56:08;;;;;;;13.43;2.27;;;6.90;99.90;;;;;;5348136;26;20274;-70
2024/04/16 06:58:33;;;;;;;4.00;1.90;;;6.90;99.90;;;;;;5324214;26;20677;-72
2024/04/16 07:01:00;;;;;;;9.30;2.00;;;6.90;99.90;;;;;;5349004;26;20322;-69
2024/04/16 07:03:25;;;;;;;4.43;1.97;;;7.00;99.90;;;;;;5357017;26;20368;-71
2024/04/16 07:05:51;;;;;;;3.67;1.83;;;7.10;99.90;;;;;;5348948;26;20513;-72
2024/04/16 07:08:18;;;;;;;7.03;1.77;;;7.10;99.90;;;;;;5348732;26;20263;-70
2024/04/16 07:10:47;;;;;;;5.27;2.03;;;7.20;99.90;;;;;;5347093;26;20277;-69
2024/04/16 07:13:14;;;;;;;3.37;1.50;;;7.30;99.90;;;;;;5344347;26;20571;-70
2024/04/16 07:15:39;;;;;;;1.50;1.27;;;7.40;99.90;;;;;;5315964;26;21128;-72
2024/04/16 07:18:05;;;;;;;1.63;1.33;;;7.50;99.90;;;;;;5358520;26;20493;-70
2024/04/16 07:20:31;;;;;;;2.03;1.60;;;7.50;99.90;;;;;;5348227;26;20271;-69
2024/04/16 07:22:57;;;;;;;2.60;1.63;;;7.60;99.90;;;;;;5341731;26;20326;-71
2024/04/16 07:25:23;;;;;;;1.97;1.10;;;7.70;99.90;;;;;;5340727;26;20532;-69
2024/04/16 07:27:49;;;;;;;3.93;1.20;;;7.80;99.90;;;;;;5350774;26;20371;-69
2024/04/16 07:30:15;;;;;;;3.03;1.60;;;7.80;99.90;;;;;;5339413;26;20556;-71
2024/04/16 07:32:41;;;;;;;3.80;1.17;;;7.80;99.90;;;;;;5339571;26;20270;-70
2024/04/16 07:35:07;;;;;;;3.43;1.90;;;8.00;99.90;;;;;;5342103;26;20559;-72
2024/04/16 07:37:33;;;;;;;2.20;1.40;;;8.10;99.90;;;;;;5323957;26;20363;-69
2024/04/16 07:39:58;;;;;;;1.13;1.00;;;8.20;99.90;;;;;;5357741;26;20266;-70
2024/04/16 07:42:24;;;;;;;1.40;1.30;;;8.30;99.90;;;;;;5345065;26;20323;-69
2024/04/16 07:44:49;;;;;;;3.10;0.97;;;8.30;99.90;;;;;;5346739;26;20257;-67
2024/04/16 07:47:15;;;;;;;2.20;1.20;;;8.40;99.90;;;;;;5345180;26;20310;-74
2024/04/16 07:49:41;;;;;;;1.30;1.20;;;8.40;99.90;;;;;;5353986;26;20247;-67
2024/04/16 07:52:06;;;;;;;1.70;1.57;;;8.40;99.90;;;;;;5346161;26;20279;-70
2024/04/16 07:54:32;;;;;;;1.67;1.27;;;8.40;99.90;;;;;;5353672;26;20285;-69
2024/04/16 07:56:59;;;;;;;1.63;0.90;;;8.30;99.90;;;;;;5361916;26;20269;-70
2024/04/16 07:59:24;;;;;;;3.83;1.63;;;8.30;99.90;;;;;;5349352;26;20259;-71
2024/04/16 08:01:50;;;;;;;4.40;1.23;;;8.30;99.90;;;;;;5338222;26;20498;-70
2024/04/16 08:04:16;;;;;;;1.63;0.90;;;8.20;99.90;;;;;;5345540;26;20312;-69
2024/04/16 08:06:41;;;;;;;1.70;1.37;;;8.20;99.90;;;;;;5319733;26;20261;-68
2024/04/16 08:09:07;;;;;;;1.00;0.90;;;8.20;99.90;;;;;;5353606;26;20254;-69
2024/04/16 08:11:33;;;;;;;2.80;1.30;;;8.10;99.90;;;;;;5350936;26;20806;-69
2024/04/16 08:13:59;;;;;;;1.90;1.10;;;8.10;99.90;;;;;;5347163;26;20500;-71
2024/04/16 08:16:25;;;;;;;3.10;1.20;;;8.20;99.90;;;;;;5336495;26;20270;-70
2024/04/16 08:18:51;;;;;;;1.90;1.13;;;8.20;99.90;;;;;;5348888;26;20306;-71
2024/04/16 08:21:16;;;;;;;1.83;1.43;;;8.20;99.90;;;;;;5354592;26;21068;-70
2024/04/16 08:23:42;;;;;;;1.17;1.03;;;8.20;99.90;;;;;;5359465;26;20308;-70
2024/04/16 08:26:08;;;;;;;1.53;1.43;;;8.00;99.90;;;;;;5347972;26;20276;-72
2024/04/16 08:28:33;;;;;;;2.70;2.50;;;8.00;99.90;;;;;;5384717;26;20309;-70
2024/04/16 08:31:01;;;;;;;5.30;4.50;;;7.90;99.90;;;;;;5352564;26;20314;-70
2024/04/16 08:33:27;;;;;;;8.33;4.27;;;8.00;99.90;;;;;;5345655;26;20320;-71
2024/04/16 08:35:53;;;;;;;4.43;2.10;;;7.90;99.90;;;;;;5355500;26;21040;-71
2024/04/16 08:38:19;;;;;;;3.10;2.87;;;7.80;99.90;;;;;;5324028;26;20309;-70
2024/04/16 08:40:45;;;;;;;2.97;1.80;;;7.70;99.90;;;;;;5353678;26;20266;-71
2024/04/16 08:43:12;;;;;;;2.13;1.10;;;7.60;99.90;;;;;;5345163;26;20555;-71
2024/04/16 08:45:38;;;;;;;4.30;1.43;;;7.60;99.90;;;;;;5346356;26;20259;-70
2024/04/16 08:48:05;;;;;;;1.40;1.30;;;7.50;99.90;;;;;;5343460;26;20489;-70
2024/04/16 08:50:33;;;;;;;1.10;1.10;;;7.50;99.90;;;;;;5343001;26;20486;-70
2024/04/16 08:52:59;;;;;;;2.23;1.90;;;7.50;99.90;;;;;;5341786;26;20593;-69
2024/04/16 08:55:26;;;;;;;3.00;2.70;;;7.40;99.90;;;;;;5351614;26;20596;-68
2024/04/16 08:57:52;;;;;;;1.27;1.17;;;7.40;99.90;;;;;;5361225;26;20496;-69
2024/04/16 09:00:19;;;;;;;1.53;1.33;;;7.40;99.90;;;;;;5314705;26;20508;-69
2024/04/16 09:02:50;;;;;;;1.90;1.67;;;7.30;99.90;;;;;;5344034;26;20266;-70
2024/04/16 09:05:17;;;;;;;2.00;1.90;;;7.50;99.90;;;;;;5339836;26;20850;-70
2024/04/16 09:07:42;;;;;;;2.33;1.33;;;7.50;99.90;;;;;;5347312;26;20498;-70
2024/04/16 09:10:22;;;;;;;1.27;1.17;;;7.40;99.90;;;;;;5351132;26;20530;-73
2024/04/16 09:12:48;;;;;;;1.80;1.03;;;7.40;99.90;;;;;;5348884;26;20364;-69
2024/04/16 09:15:16;;;;;;;1.47;0.90;;;7.50;99.90;;;;;;5350375;26;20499;-71
2024/04/16 09:17:52;;;;;;;1.83;1.13;;;7.30;99.90;;;;;;5346483;26;20608;-69
2024/04/16 09:20:23;;;;;;;2.10;1.30;;;7.40;99.90;;;;;;5352647;26;21040;-69
2024/04/16 09:22:50;;;;;;;3.13;1.93;;;7.40;99.90;;;;;;5344653;26;20500;-69
2024/04/16 09:25:17;;;;;;;2.43;1.70;;;7.50;99.90;;;;;;5344201;26;20552;-69
2024/04/16 09:27:46;;;;;;;4.37;3.70;;;7.40;99.90;;;;;;5348226;26;20994;-73
2024/04/16 09:30:12;;;;;;;1.70;1.60;;;7.60;99.90;;;;;;5353704;26;20516;-69
2024/04/16 09:32:38;;;;;;;1.67;1.57;;;7.80;99.90;;;;;;5356811;26;20496;-70
2024/04/16 09:35:05;;;;;;;2.00;1.33;;;7.90;99.90;;;;;;5362859;26;20898;-70
2024/04/16 09:37:31;;;;;;;1.10;0.97;;;7.90;99.90;;;;;;5388226;26;20479;-70
2024/04/16 09:39:59;;;;;;;1.63;1.53;;;7.90;99.90;;;;;;5383042;26;20502;-70
2024/04/16 09:42:30;;;;;;;1.27;1.17;;;8.00;99.90;;;;;;5382850;26;20499;-71
2024/04/16 09:45:00;;;;;;;0.70;0.70;;;8.00;99.90;;;;;;5374374;26;20599;-69
2024/04/16 09:47:26;;;;;;;2.93;1.10;;;8.10;99.90;;;;;;5379651;26;20547;-70
2024/04/16 09:49:55;;;;;;;0.87;0.83;;;8.00;99.90;;;;;;5387777;26;20487;-72
2024/04/16 09:52:21;;;;;;;1.37;1.20;;;8.00;99.90;;;;;;5388790;26;20483;-70
2024/04/16 09:54:49;;;;;;;2.77;1.10;;;8.00;99.90;;;;;;5382136;26;20489;-70
2024/04/16 09:57:15;;;;;;;1.10;1.00;;;8.10;99.90;;;;;;5355819;26;20490;-70
2024/04/16 09:59:41;;;;;;;1.20;1.10;;;8.20;99.90;;;;;;5381297;26;20500;-71
2024/04/16 10:02:10;;;;;;;0.60;0.60;;;8.30;99.90;;;;;;5378153;26;20487;-70
2024/04/16 10:04:36;;;;;;;0.40;0.40;;;8.40;99.90;;;;;;5382096;26;20499;-71
2024/04/16 10:07:03;;;;;;;2.93;0.80;;;8.60;99.90;;;;;;5376244;26;20539;-71
2024/04/16 10:09:32;;;;;;;0.77;0.53;;;8.60;99.90;;;;;;5385384;26;21087;-70
2024/04/16 10:11:59;;;;;;;0.83;0.73;;;8.70;99.90;;;;;;5385753;26;20615;-70
2024/04/16 10:14:26;;;;;;;2.90;0.93;;;8.70;99.90;;;;;;5379882;26;20488;-70
2024/04/16 10:16:53;;;;;;;1.17;0.63;;;8.80;99.90;;;;;;5385026;26;20566;-70
2024/04/16 10:19:19;;;;;;;0.70;0.70;;;8.90;99.90;;;;;;5380142;26;20558;-71
2024/04/16 10:21:49;;;;;;;1.97;1.13;;;8.90;99.90;;;;;;5386162;26;20572;-68
2024/04/16 10:24:19;;;;;;;0.70;0.70;;;9.00;99.90;;;;;;5379009;26;20260;-70
2024/04/16 10:26:47;;;;;;;1.80;0.90;;;9.10;99.90;;;;;;5383084;26;20502;-70
2024/04/16 10:29:17;;;;;;;3.00;0.97;;;9.20;99.90;;;;;;5374962;26;20543;-70
2024/04/16 10:31:48;;;;;;;0.70;0.70;;;9.40;99.90;;;;;;5374949;26;20514;-71
2024/04/16 10:34:19;;;;;;;1.30;1.20;;;9.30;99.90;;;;;;5365480;26;20496;-70
2024/04/16 10:36:46;;;;;;;1.20;1.10;;;9.40;99.90;;;;;;5382936;26;20533;-71
2024/04/16 10:39:12;;;;;;;0.70;0.70;;;9.50;99.90;;;;;;5341797;26;20494;-71
2024/04/16 10:41:37;;;;;;;1.00;0.90;;;9.50;99.90;;;;;;5379056;26;20487;-70
2024/04/16 10:44:03;;;;;;;0.60;0.60;;;9.60;99.90;;;;;;5374734;26;20538;-70
2024/04/16 10:46:29;;;;;;;1.63;1.20;;;9.50;99.90;;;;;;5377986;26;20340;-71
2024/04/16 10:48:56;;;;;;;1.40;1.00;;;9.60;99.90;;;;;;5375561;26;20484;-71
2024/04/16 10:51:22;;;;;;;0.70;0.70;;;9.60;99.90;;;;;;5383570;26;20515;-70
2024/04/16 10:53:47;;;;;;;1.00;0.70;;;9.70;99.90;;;;;;5387614;26;20620;-70
2024/04/16 10:56:13;;;;;;;1.40;0.93;;;9.80;99.90;;;;;;5384046;26;20266;-71
2024/04/16 10:58:39;;;;;;;1.20;0.83;;;9.90;99.90;;;;;;5375459;26;20929;-70
2024/04/16 11:01:06;;;;;;;2.60;1.00;;;9.90;99.90;;;;;;5374309;26;20313;-73
2024/04/16 11:03:35;;;;;;;1.13;0.73;;;9.90;99.90;;;;;;5412419;26;20646;-70
2024/04/16 11:06:01;;;;;;;1.57;0.60;;;9.90;99.90;;;;;;5357810;26;20838;-71
2024/04/16 11:08:26;;;;;;;0.73;0.73;;;10.10;99.90;;;;;;5378382;26;20492;-72
2024/04/16 11:10:52;;;;;;;0.60;0.60;;;10.10;99.90;;;;;;5379940;26;20357;-70
2024/04/16 11:13:19;;;;;;;0.60;0.60;;;10.20;99.90;;;;;;5379894;26;20261;-70
2024/04/16 11:15:45;;;;;;;1.00;0.90;;;10.20;99.90;;;;;;5383462;26;20265;-71
2024/04/16 11:18:11;;;;;;;0.83;0.80;;;10.30;99.90;;;;;;5366766;26;20538;-70
2024/04/16 11:20:38;;;;;;;0.60;0.60;;;10.50;99.90;;;;;;5383854;26;20496;-73
2024/04/16 11:23:04;;;;;;;1.47;0.60;;;10.60;99.90;;;;;;5379815;26;20273;-73
2024/04/16 11:25:31;;;;;;;4.87;3.17;;;10.70;99.90;;;;;;5363550;26;20488;-70
2024/04/16 11:27:57;;;;;;;1.37;1.27;;;10.90;99.90;;;;;;5366172;25;20515;-70
2024/04/16 11:30:24;;;;;;;1.50;1.00;;;11.10;99.90;;;;;;5382231;26;20500;-70
2024/04/16 11:32:49;;;;;;;2.50;0.67;;;11.30;99.90;;;;;;5372917;26;21089;-70
2024/04/16 11:35:15;;;;;;;0.67;0.60;;;11.50;99.90;;;;;;5320785;26;20495;-72
2024/04/16 11:37:45;;;;;;;3.70;1.03;;;11.50;99.90;;;;;;5340870;26;20489;-70
2024/04/16 11:40:11;;;;;;;1.23;0.90;;;11.60;99.90;;;;;;5369256;26;20269;-70
2024/04/16 11:42:37;;;;;;;0.70;0.70;;;11.80;99.90;;;;;;5374437;25;20501;-72
2024/04/16 11:45:04;;;;;;;1.13;0.77;;;12.10;99.90;;;;;;5339862;26;20572;-70
2024/04/16 11:47:30;;;;;;;1.07;1.03;;;12.30;99.90;;;;;;5352507;26;20537;-73
2024/04/16 11:50:00;;;;;;;1.13;1.00;;;12.40;99.90;;;;;;5371603;26;20498;-71
2024/04/16 11:52:27;;;;;;;1.00;1.00;;;12.50;99.90;;;;;;5384652;26;20567;-71
2024/04/16 11:54:52;;;;;;;1.57;1.17;;;12.50;99.90;;;;;;5386612;26;20562;-69
2024/04/16 11:57:18;;;;;;;1.47;0.87;;;12.60;99.90;;;;;;5380422;25;20499;-72
2024/04/16 11:59:44;;;;;;;1.03;1.00;;;12.90;99.90;;;;;;5403147;26;20750;-70
2024/04/16 12:02:13;;;;;;;1.87;1.30;;;13.10;99.90;;;;;;5382956;26;20285;-68
2024/04/16 12:04:39;;;;;;;1.37;0.90;;;13.10;99.90;;;;;;5389125;26;20264;-70
2024/04/16 12:07:04;;;;;;;2.07;1.20;;;13.20;99.90;;;;;;5379978;25;20499;-70
2024/04/16 12:09:31;;;;;;;0.80;0.60;;;13.40;99.90;;;;;;5385475;26;20321;-72
2024/04/16 12:11:57;;;;;;;0.67;0.67;;;13.50;99.90;;;;;;5373056;26;20838;-71
2024/04/16 12:14:23;;;;;;;1.33;0.80;;;13.70;99.90;;;;;;5386454;26;20495;-71
2024/04/16 12:16:49;;;;;;;1.33;0.60;;;13.70;99.90;;;;;;5386032;26;20491;-74
2024/04/16 12:19:15;;;;;;;0.60;0.60;;;13.80;99.90;;;;;;5372718;26;20269;-72
2024/04/16 12:21:41;;;;;;;0.60;0.60;;;13.90;99.90;;;;;;5381626;26;20560;-71
2024/04/16 12:24:07;;;;;;;1.17;0.70;;;13.80;99.90;;;;;;5376375;26;20641;-71
2024/04/16 12:26:32;;;;;;;1.47;0.77;;;13.90;99.90;;;;;;5383398;26;20622;-72
2024/04/16 12:28:58;;;;;;;0.77;0.60;;;13.90;99.90;;;;;;5377272;26;20285;-71
2024/04/16 12:31:25;;;;;;;0.70;0.70;;;13.90;99.90;;;;;;5381830;25;20309;-71
2024/04/16 12:33:50;;;;;;;1.80;0.90;;;14.10;99.90;;;;;;5378961;26;20265;-74
2024/04/16 12:36:16;;;;;;;3.10;0.80;;;14.00;99.90;;;;;;5384942;26;20550;-70
2024/04/16 12:38:44;;;;;;;1.73;0.77;;;13.90;99.90;;;;;;5378400;25;20824;-69
2024/04/16 12:41:09;;;;;;;1.93;1.00;;;14.10;99.90;;;;;;5380895;25;20348;-73
2024/04/16 12:43:35;;;;;;;1.13;0.80;;;14.40;99.90;;;;;;5380614;25;20587;-71
2024/04/16 12:46:01;;;;;;;2.20;0.73;;;14.30;99.90;;;;;;5381712;25;20704;-70
2024/04/16 12:48:27;;;;;;;2.57;0.87;;;14.10;99.90;;;;;;5382613;25;20735;-71
2024/04/16 12:50:53;;;;;;;2.63;1.10;;;13.90;99.90;;;;;;5372059;26;20278;-70
2024/04/16 12:53:19;;;;;;;0.90;0.90;;;13.70;99.90;;;;;;5380319;26;20316;-72